createdAt,value
2018-09-19T00:01:45.287Z,14.70
2018-09-19T00:04:15.392Z,14.70
2018-09-19T00:06:45.522Z,14.60
2018-09-19T00:09:15.628Z,14.60
2018-09-19T00:11:45.752Z,14.50
2018-09-19T00:14:15.816Z,14.50
2018-09-19T00:16:45.916Z,14.50
2018-09-19T00:19:16.008Z,14.50
2018-09-19T00:21:46.158Z,14.40
2018-09-19T00:24:16.236Z,14.50
2018-09-19T00:26:46.419Z,14.50
2018-09-19T00:29:16.520Z,14.40
2018-09-19T00:31:46.629Z,14.40
2018-09-19T00:34:16.705Z,14.40
2018-09-19T00:36:46.792Z,14.40
2018-09-19T00:39:16.931Z,14.50
2018-09-19T00:41:47.024Z,14.50
2018-09-19T00:44:17.444Z,14.50
2018-09-19T00:46:48.389Z,14.50
2018-09-19T00:49:18.484Z,14.50
2018-09-19T00:51:48.569Z,14.40
2018-09-19T00:54:18.645Z,14.40
2018-09-19T00:56:48.712Z,14.40
2018-09-19T00:59:18.871Z,14.40
2018-09-19T01:01:48.933Z,14.30
2018-09-19T01:04:19.015Z,14.30
2018-09-19T01:06:49.099Z,14.20
2018-09-19T01:09:19.169Z,14.20
2018-09-19T01:11:49.344Z,14.20
2018-09-19T01:14:19.418Z,14.20
2018-09-19T01:16:49.558Z,14.30
2018-09-19T01:19:19.654Z,14.30
2018-09-19T01:21:49.776Z,14.40
2018-09-19T01:24:19.876Z,14.40
2018-09-19T01:26:49.971Z,14.40
2018-09-19T01:29:20.057Z,14.30
2018-09-19T01:31:50.132Z,14.30
2018-09-19T01:34:20.272Z,14.30
2018-09-19T01:36:50.340Z,14.20
2018-09-19T01:39:20.420Z,14.20
2018-09-19T01:41:50.576Z,14.10
2018-09-19T01:44:20.673Z,14.10
2018-09-19T01:46:50.784Z,14.00
2018-09-19T01:49:20.882Z,14.10
2018-09-19T01:51:54.426Z,14.10
2018-09-19T01:54:25.452Z,14.10
2018-09-19T01:56:55.564Z,14.10
2018-09-19T01:59:25.648Z,14.10
2018-09-19T02:01:55.824Z,14.00
2018-09-19T02:04:25.921Z,13.90
2018-09-19T02:06:56.001Z,13.90
2018-09-19T02:09:26.191Z,13.80
2018-09-19T02:11:56.309Z,13.90
2018-09-19T02:14:26.383Z,13.90
2018-09-19T02:16:56.492Z,13.90
2018-09-19T02:19:26.567Z,13.90
2018-09-19T02:21:56.688Z,13.90
2018-09-19T02:24:26.784Z,13.80
2018-09-19T02:26:56.875Z,13.90
2018-09-19T02:29:26.965Z,13.90
2018-09-19T02:31:57.056Z,13.90
2018-09-19T02:34:27.160Z,13.90
2018-09-19T02:36:57.250Z,14.00
2018-09-19T02:39:27.333Z,14.00
2018-09-19T02:41:57.488Z,14.00
2018-09-19T02:44:27.564Z,14.00
2018-09-19T02:46:57.668Z,14.00
2018-09-19T02:49:27.742Z,14.00
2018-09-19T02:51:58.560Z,13.90
2018-09-19T02:54:30.409Z,13.90
2018-09-19T02:57:00.571Z,13.90
2018-09-19T02:59:30.804Z,13.90
2018-09-19T03:02:01.095Z,13.80
2018-09-19T03:04:31.150Z,13.70
2018-09-19T03:07:01.262Z,13.70
2018-09-19T03:09:31.337Z,13.70
2018-09-19T03:12:01.445Z,13.70
2018-09-19T03:14:31.512Z,13.70
2018-09-19T03:17:01.635Z,13.80
2018-09-19T03:19:31.726Z,13.70
2018-09-19T03:22:01.832Z,13.60
2018-09-19T03:24:31.901Z,13.60
2018-09-19T03:27:02.007Z,13.60
2018-09-19T03:29:32.175Z,13.60
2018-09-19T03:32:02.240Z,13.70
2018-09-19T03:34:32.416Z,13.70
2018-09-19T03:37:02.493Z,13.70
2018-09-19T03:39:32.606Z,13.60
2018-09-19T03:42:02.701Z,13.60
2018-09-19T03:44:32.799Z,13.60
2018-09-19T03:47:02.880Z,13.60
2018-09-19T03:49:33.068Z,13.60
2018-09-19T03:52:03.205Z,13.70
2018-09-19T03:54:33.292Z,13.70
2018-09-19T03:57:03.424Z,13.80
2018-09-19T03:59:33.459Z,13.70
2018-09-19T04:02:03.557Z,13.70
2018-09-19T04:04:33.624Z,13.70
2018-09-19T04:07:03.715Z,13.70
2018-09-19T04:09:33.804Z,13.60
2018-09-19T04:12:03.900Z,13.60
2018-09-19T04:14:33.984Z,13.60
2018-09-19T04:17:04.107Z,13.60
2018-09-19T04:19:34.220Z,13.60
2018-09-19T04:22:04.305Z,13.70
2018-09-19T04:24:34.402Z,13.60
2018-09-19T04:27:04.569Z,13.70
2018-09-19T04:29:34.576Z,13.70
2018-09-19T04:32:05.788Z,13.70
2018-09-19T04:34:36.160Z,13.60
2018-09-19T04:37:06.653Z,13.60
2018-09-19T04:39:36.836Z,13.60
2018-09-19T04:42:07.397Z,13.70
2018-09-19T04:44:37.613Z,13.60
2018-09-19T04:47:07.677Z,13.50
2018-09-19T04:49:37.756Z,13.40
2018-09-19T04:52:07.993Z,13.30
2018-09-19T04:54:38.062Z,13.30
2018-09-19T04:57:08.161Z,13.20
2018-09-19T04:59:38.229Z,13.10
2018-09-19T05:02:08.347Z,13.10
2018-09-19T05:04:38.566Z,13.10
2018-09-19T05:07:08.741Z,13.10
2018-09-19T05:09:38.836Z,13.10
2018-09-19T05:12:08.989Z,13.10
2018-09-19T05:14:39.164Z,13.10
2018-09-19T05:17:09.287Z,13.10
2018-09-19T05:19:39.396Z,13.20
2018-09-19T05:22:09.657Z,13.20
2018-09-19T05:24:39.765Z,13.30
2018-09-19T05:27:09.872Z,13.60
2018-09-19T05:29:40.019Z,13.90
2018-09-19T05:32:10.132Z,14.10
2018-09-19T05:34:40.272Z,14.40
2018-09-19T05:37:10.409Z,14.60
2018-09-19T05:39:40.500Z,14.50
2018-09-19T05:42:10.664Z,14.40
2018-09-19T05:44:40.760Z,14.40
2018-09-19T05:47:11.164Z,14.40
2018-09-19T05:49:41.254Z,14.50
2018-09-19T05:52:11.349Z,14.50
2018-09-19T05:54:41.538Z,14.50
2018-09-19T05:57:11.564Z,14.60
2018-09-19T05:59:41.666Z,14.80
2018-09-19T06:02:11.762Z,14.90
2018-09-19T06:04:41.848Z,15.10
2018-09-19T06:07:11.973Z,15.20
2018-09-19T06:09:42.048Z,15.30
2018-09-19T06:12:12.137Z,15.40
2018-09-19T06:14:42.226Z,15.30
2018-09-19T06:17:12.371Z,15.50
2018-09-19T06:19:42.505Z,15.60
2018-09-19T06:22:12.593Z,15.70
2018-09-19T06:24:42.772Z,15.90
2018-09-19T06:27:12.969Z,16.00
2018-09-19T06:29:43.073Z,16.20
2018-09-19T06:32:13.149Z,16.40
2018-09-19T06:34:43.312Z,16.50
2018-09-19T06:37:13.373Z,16.70
2018-09-19T06:39:43.491Z,16.70
2018-09-19T06:42:13.586Z,16.80
2018-09-19T06:44:43.672Z,16.90
2018-09-19T06:47:13.736Z,17.00
2018-09-19T06:49:43.831Z,17.10
2018-09-19T06:52:13.929Z,17.20
2018-09-19T06:54:44.019Z,17.20
2018-09-19T06:57:14.129Z,17.30
2018-09-19T06:59:44.288Z,17.50
2018-09-19T07:02:14.306Z,17.60
2018-09-19T07:04:44.384Z,17.70
2018-09-19T07:07:14.488Z,17.80
2018-09-19T07:09:44.565Z,17.90
2018-09-19T07:12:14.686Z,18.10
2018-09-19T07:14:44.752Z,18.20
2018-09-19T07:17:14.843Z,18.30
2018-09-19T07:19:45.216Z,18.40
2018-09-19T07:22:16.613Z,18.60
2018-09-19T07:24:46.693Z,18.60
2018-09-19T07:27:16.820Z,18.70
2018-09-19T07:29:46.904Z,18.70
2018-09-19T07:32:17.017Z,18.80
2018-09-19T07:34:47.121Z,18.90
2018-09-19T07:37:17.214Z,19.00
2018-09-19T07:39:47.316Z,19.00
2018-09-19T07:42:17.398Z,19.20
2018-09-19T07:44:47.510Z,19.40
2018-09-19T07:47:17.601Z,19.40
2018-09-19T07:49:47.680Z,19.40
2018-09-19T07:52:17.790Z,19.50
2018-09-19T07:54:48.025Z,19.50
2018-09-19T07:57:18.052Z,19.80
2018-09-19T07:59:48.123Z,19.90
2018-09-19T08:02:18.216Z,20.20
2018-09-19T08:04:48.307Z,20.40
2018-09-19T08:07:18.404Z,20.60
2018-09-19T08:09:48.536Z,20.80
2018-09-19T08:12:18.639Z,21.10
2018-09-19T08:14:48.741Z,21.30
2018-09-19T08:17:18.872Z,21.50
2018-09-19T08:19:49.059Z,21.80
2018-09-19T08:22:19.152Z,22.30
2018-09-19T08:24:49.239Z,22.80
2018-09-19T08:27:19.350Z,23.00
2018-09-19T08:29:49.496Z,23.00
2018-09-19T08:32:19.609Z,23.10
2018-09-19T08:34:49.693Z,22.90
2018-09-19T08:37:19.818Z,22.80
2018-09-19T08:39:49.896Z,22.80
2018-09-19T08:42:20.037Z,22.60
2018-09-19T08:44:50.127Z,22.70
2018-09-19T08:47:20.201Z,22.90
2018-09-19T08:49:50.273Z,23.20
2018-09-19T08:52:20.377Z,23.30
2018-09-19T08:54:50.490Z,23.70
2018-09-19T08:57:20.551Z,23.90
2018-09-19T08:59:50.620Z,24.00
2018-09-19T09:02:20.748Z,24.20
2018-09-19T09:04:50.859Z,24.40
2018-09-19T09:07:20.972Z,24.50
2018-09-19T09:09:51.083Z,24.80
2018-09-19T09:12:21.270Z,24.90
2018-09-19T09:14:51.268Z,24.90
2018-09-19T09:17:21.400Z,25.10
2018-09-19T09:19:51.518Z,25.00
2018-09-19T09:22:21.584Z,24.80
2018-09-19T09:24:51.660Z,24.50
2018-09-19T09:27:21.775Z,24.20
2018-09-19T09:29:52.005Z,24.00
2018-09-19T09:32:22.130Z,23.90
2018-09-19T09:34:52.264Z,23.80
2018-09-19T09:37:22.348Z,23.70
2018-09-19T09:39:52.425Z,23.70
2018-09-19T09:42:22.544Z,23.70
2018-09-19T09:44:52.636Z,23.80
2018-09-19T09:47:22.749Z,23.90
2018-09-19T09:49:52.885Z,23.90
2018-09-19T09:52:23.028Z,24.00
2018-09-19T09:54:53.108Z,24.20
2018-09-19T09:57:23.219Z,24.40
2018-09-19T09:59:53.313Z,24.60
2018-09-19T10:02:23.475Z,24.60
2018-09-19T10:04:53.540Z,24.60
2018-09-19T10:07:23.618Z,24.60
2018-09-19T10:09:53.709Z,24.50
2018-09-19T10:12:23.829Z,24.50
2018-09-19T10:14:54.080Z,24.50
2018-09-19T10:17:24.469Z,24.60
2018-09-19T10:19:54.629Z,24.60
2018-09-19T10:22:25.361Z,24.70
2018-09-19T10:24:55.424Z,24.90
2018-09-19T10:27:25.547Z,24.80
2018-09-19T10:29:55.629Z,24.80
2018-09-19T10:32:26.401Z,24.80
2018-09-19T10:34:56.504Z,25.10
2018-09-19T10:37:26.690Z,25.30
2018-09-19T10:39:56.774Z,25.60
2018-09-19T10:42:26.971Z,25.70
2018-09-19T10:44:57.004Z,26.00
2018-09-19T10:47:27.270Z,26.30
2018-09-19T10:49:57.351Z,26.30
2018-09-19T10:52:27.549Z,26.40
2018-09-19T10:54:57.648Z,26.50
2018-09-19T10:57:27.913Z,26.50
2018-09-19T10:59:58.048Z,26.50
2018-09-19T11:02:28.248Z,26.40
2018-09-19T11:04:58.377Z,26.30
2018-09-19T11:07:28.533Z,26.20
2018-09-19T11:09:58.651Z,26.40
2018-09-19T11:12:28.792Z,26.50
2018-09-19T11:14:58.898Z,26.60
2018-09-19T11:17:29.054Z,26.80
2018-09-19T11:19:59.144Z,26.90
2018-09-19T11:22:29.390Z,27.10
2018-09-19T11:24:59.643Z,27.20
2018-09-19T11:27:30.004Z,27.30
2018-09-19T11:30:00.094Z,27.10
2018-09-19T11:32:30.279Z,27.10
2018-09-19T11:35:00.364Z,26.90
2018-09-19T11:37:30.601Z,26.80
2018-09-19T11:40:00.797Z,26.80
2018-09-19T11:42:31.000Z,26.70
2018-09-19T11:45:01.092Z,26.70
2018-09-19T11:47:31.228Z,26.50
2018-09-19T11:50:01.309Z,26.30
2018-09-19T11:52:31.449Z,26.10
2018-09-19T11:55:01.581Z,26.00
2018-09-19T11:57:31.893Z,25.90
2018-09-19T12:00:02.049Z,25.80
2018-09-19T12:02:32.129Z,25.60
2018-09-19T12:05:02.234Z,25.30
2018-09-19T12:07:32.625Z,25.30
2018-09-19T12:10:02.708Z,25.30
2018-09-19T12:12:32.824Z,25.30
2018-09-19T12:15:02.922Z,25.30
2018-09-19T12:17:33.005Z,25.20
2018-09-19T12:20:03.188Z,25.20
2018-09-19T12:22:33.280Z,25.20
2018-09-19T12:25:03.460Z,25.20
2018-09-19T12:27:33.573Z,25.20
2018-09-19T12:30:03.703Z,25.20
2018-09-19T12:32:33.763Z,25.20
2018-09-19T12:35:03.858Z,25.10
2018-09-19T12:37:34.139Z,25.00
2018-09-19T12:40:04.574Z,24.80
2018-09-19T12:42:34.627Z,24.60
2018-09-19T12:45:04.800Z,24.60
2018-09-19T12:47:34.872Z,24.50
2018-09-19T12:50:05.109Z,24.40
2018-09-19T12:52:35.514Z,24.30
2018-09-19T12:55:05.689Z,24.20
2018-09-19T12:57:35.776Z,24.20
2018-09-19T13:00:06.062Z,24.20
2018-09-19T13:02:36.148Z,24.10
2018-09-19T13:05:06.364Z,24.10
2018-09-19T13:07:36.420Z,23.90
2018-09-19T13:10:06.821Z,23.90
2018-09-19T13:12:36.939Z,23.80
2018-09-19T13:15:07.043Z,23.80
2018-09-19T13:17:37.204Z,23.80
2018-09-19T13:20:07.340Z,23.70
2018-09-19T13:22:37.420Z,23.70
2018-09-19T13:25:07.504Z,23.60
2018-09-19T13:27:37.585Z,23.60
2018-09-19T13:30:07.956Z,23.60
2018-09-19T13:32:38.064Z,23.60
2018-09-19T13:35:08.186Z,23.70
2018-09-19T13:37:38.336Z,23.80
2018-09-19T13:40:08.516Z,23.90
2018-09-19T13:42:38.638Z,24.00
2018-09-19T13:45:08.756Z,24.10
2018-09-19T13:47:38.891Z,24.10
2018-09-19T13:50:56.337Z,24.20
2018-09-19T13:53:26.433Z,24.30
2018-09-19T13:55:56.548Z,24.40
2018-09-19T13:58:26.632Z,24.50
2018-09-19T14:00:56.745Z,24.60
2018-09-19T14:03:26.833Z,24.70
2018-09-19T14:05:57.036Z,24.70
2018-09-19T14:08:27.162Z,24.80
2018-09-19T14:10:57.247Z,24.80
2018-09-19T14:13:27.400Z,24.80
2018-09-19T14:15:57.504Z,24.80
2018-09-19T14:18:27.872Z,24.70
2018-09-19T14:20:57.956Z,24.60
2018-09-19T14:23:28.088Z,24.60
2018-09-19T14:25:58.161Z,24.60
2018-09-19T14:28:28.381Z,24.60
2018-09-19T14:30:58.516Z,24.60
2018-09-19T14:33:28.649Z,24.60
2018-09-19T14:35:58.823Z,24.60
2018-09-19T14:38:28.900Z,24.60
2018-09-19T14:40:59.017Z,24.50
2018-09-19T14:43:29.124Z,24.50
2018-09-19T14:45:59.572Z,24.50
2018-09-19T14:48:29.692Z,24.60
2018-09-19T14:50:59.756Z,24.60
2018-09-19T14:53:30.656Z,24.50
2018-09-19T14:56:00.847Z,24.40
2018-09-19T14:58:31.044Z,24.30
2018-09-19T15:01:01.143Z,24.20
2018-09-19T15:03:31.304Z,24.10
2018-09-19T15:06:01.456Z,24.10
2018-09-19T15:08:31.547Z,24.00
2018-09-19T15:11:01.633Z,24.10
2018-09-19T15:13:31.738Z,24.00
2018-09-19T15:16:01.884Z,24.00
2018-09-19T15:18:32.028Z,24.10
2018-09-19T15:21:02.105Z,24.10
2018-09-19T15:23:32.245Z,24.20
2018-09-19T15:26:02.449Z,24.20
2018-09-19T15:28:32.565Z,24.30
2018-09-19T15:31:02.627Z,24.30
2018-09-19T15:33:32.736Z,24.30
2018-09-19T15:36:02.901Z,24.30
2018-09-19T15:38:32.958Z,24.30
2018-09-19T15:41:03.249Z,24.20
2018-09-19T15:43:34.160Z,24.10
2018-09-19T15:46:04.275Z,24.10
2018-09-19T15:48:34.470Z,24.00
2018-09-19T15:51:04.580Z,23.90
2018-09-19T15:53:34.647Z,23.80
2018-09-19T15:56:04.748Z,23.70
2018-09-19T15:58:34.833Z,23.60
2018-09-19T16:01:04.977Z,23.60
2018-09-19T16:03:35.104Z,23.40
2018-09-19T16:06:05.215Z,23.30
2018-09-19T16:08:35.259Z,23.20
2018-09-19T16:11:05.422Z,23.10
2018-09-19T16:13:35.496Z,23.00
2018-09-19T16:16:05.597Z,22.80
2018-09-19T16:18:35.673Z,22.70
2018-09-19T16:21:05.797Z,22.60
2018-09-19T16:23:35.841Z,22.50
2018-09-19T16:26:05.917Z,22.40
2018-09-19T16:28:36.684Z,22.20
2018-09-19T16:31:07.332Z,22.20
2018-09-19T16:33:37.496Z,22.10
2018-09-19T16:36:07.711Z,22.10
2018-09-19T16:38:37.812Z,22.10
2018-09-19T16:41:08.108Z,22.00
2018-09-19T16:43:38.184Z,21.90
2018-09-19T16:46:08.372Z,21.80
2018-09-19T16:48:38.459Z,21.70
2018-09-19T16:51:08.545Z,21.60
2018-09-19T16:53:38.634Z,21.60
2018-09-19T16:56:08.721Z,21.40
2018-09-19T16:58:38.820Z,21.20
2018-09-19T17:01:09.086Z,20.80
2018-09-19T17:03:39.528Z,20.50
2018-09-19T17:06:09.633Z,20.40
2018-09-19T17:08:39.700Z,20.20
2018-09-19T17:11:09.789Z,20.00
2018-09-19T17:13:39.872Z,19.70
2018-09-19T17:16:09.949Z,19.50
2018-09-19T17:18:40.040Z,19.40
2018-09-19T17:21:10.121Z,19.20
2018-09-19T17:23:40.344Z,19.00
2018-09-19T17:26:10.452Z,19.00
2018-09-19T17:28:41.368Z,18.90
2018-09-19T17:31:11.470Z,18.80
2018-09-19T17:33:41.568Z,18.70
2018-09-19T17:36:11.665Z,18.70
2018-09-19T17:38:41.785Z,18.60
2018-09-19T17:41:11.916Z,18.50
2018-09-19T17:43:41.972Z,18.50
2018-09-19T17:46:12.144Z,18.40
2018-09-19T17:48:42.249Z,18.40
2018-09-19T17:51:12.396Z,18.40
2018-09-19T17:53:42.529Z,18.30
2018-09-19T17:56:12.628Z,18.20
2018-09-19T17:58:42.728Z,18.10
2018-09-19T18:01:12.988Z,18.10
2018-09-19T18:03:43.169Z,18.00
2018-09-19T18:06:13.569Z,18.00
2018-09-19T18:08:43.707Z,17.90
2018-09-19T18:11:13.736Z,17.90
2018-09-19T18:13:44.475Z,17.80
2018-09-19T18:16:14.580Z,17.80
2018-09-19T18:18:44.960Z,17.90
2018-09-19T18:21:15.113Z,17.90
2018-09-19T18:23:45.200Z,17.80
2018-09-19T18:26:15.272Z,17.80
2018-09-19T18:28:45.364Z,17.70
2018-09-19T18:31:15.456Z,17.70
2018-09-19T18:33:45.524Z,17.70
2018-09-19T18:36:15.644Z,17.60
2018-09-19T18:38:45.736Z,17.70
2018-09-19T18:41:15.828Z,17.60
2018-09-19T18:43:46.112Z,17.60
2018-09-19T18:46:16.233Z,17.60
2018-09-19T18:48:46.292Z,17.50
2018-09-19T18:51:16.497Z,17.50
2018-09-19T18:53:46.593Z,17.50
2018-09-19T18:56:16.680Z,17.40
2018-09-19T18:58:46.810Z,17.40
2018-09-19T19:01:16.888Z,17.30
2018-09-19T19:03:47.148Z,17.30
2018-09-19T19:06:17.340Z,17.30
2018-09-19T19:08:47.503Z,17.20
2018-09-19T19:11:17.581Z,17.20
2018-09-19T19:13:47.674Z,17.10
2018-09-19T19:16:18.098Z,17.10
2018-09-19T19:18:48.240Z,17.00
2018-09-19T19:21:18.276Z,17.00
2018-09-19T19:23:48.364Z,16.90
2018-09-19T19:26:18.456Z,16.80
2018-09-19T19:28:48.536Z,16.70
2018-09-19T19:31:18.625Z,16.70
2018-09-19T19:33:48.728Z,16.70
2018-09-19T19:36:18.857Z,16.70
2018-09-19T19:38:48.961Z,16.70
2018-09-19T19:41:19.068Z,16.60
2018-09-19T19:43:49.200Z,16.50
2018-09-19T19:46:19.296Z,16.50
2018-09-19T19:48:49.361Z,16.40
2018-09-19T19:51:19.497Z,16.40
2018-09-19T19:53:49.653Z,16.40
2018-09-19T19:56:19.741Z,16.40
2018-09-19T19:58:49.825Z,16.40
2018-09-19T20:01:19.904Z,16.40
2018-09-19T20:03:49.997Z,16.40
2018-09-19T20:06:22.163Z,16.40
2018-09-19T20:08:53.816Z,16.30
2018-09-19T20:11:30.928Z,16.30
2018-09-19T20:14:01.640Z,16.20
2018-09-19T20:16:32.403Z,16.20
2018-09-19T20:19:03.033Z,16.20
2018-09-19T20:21:34.900Z,16.20
2018-09-19T20:24:06.657Z,16.20
2018-09-19T20:26:38.293Z,16.10
2018-09-19T20:29:08.639Z,16.10
2018-09-19T20:31:39.101Z,16.00
2018-09-19T20:34:09.509Z,16.00
2018-09-19T20:36:39.743Z,16.00
2018-09-19T20:39:10.930Z,16.00
2018-09-19T20:41:41.188Z,16.00
2018-09-19T20:44:11.457Z,15.90
2018-09-19T20:46:41.760Z,15.90
2018-09-19T20:49:11.996Z,15.90
2018-09-19T20:51:42.293Z,15.80
2018-09-19T20:54:12.505Z,15.70
2018-09-19T20:56:42.749Z,15.70
2018-09-19T20:59:13.750Z,15.70
2018-09-19T21:01:45.185Z,15.70
2018-09-19T21:04:15.550Z,15.60
2018-09-19T21:06:45.715Z,15.60
2018-09-19T21:09:16.010Z,15.70
2018-09-19T21:11:46.272Z,15.70
2018-09-19T21:14:16.471Z,15.60
2018-09-19T21:16:46.652Z,15.60
2018-09-19T21:19:16.929Z,15.60
2018-09-19T21:21:47.150Z,15.60
2018-09-19T21:24:17.488Z,15.60
2018-09-19T21:26:47.689Z,15.60
2018-09-19T21:29:17.879Z,15.60
2018-09-19T21:31:48.034Z,15.60
2018-09-19T21:34:18.248Z,15.60
2018-09-19T21:36:48.480Z,15.60
2018-09-19T21:39:18.640Z,15.60
2018-09-19T21:41:48.845Z,15.50
2018-09-19T21:44:19.120Z,15.50
2018-09-19T21:46:53.805Z,15.40
2018-09-19T21:49:24.479Z,15.40
2018-09-19T21:51:55.328Z,15.30
2018-09-19T21:54:26.352Z,15.30
2018-09-19T21:56:56.813Z,15.20
2018-09-19T21:59:27.957Z,15.20
2018-09-19T22:01:59.530Z,15.20
2018-09-19T22:04:30.560Z,15.20
2018-09-19T22:07:00.962Z,15.20
2018-09-19T22:09:31.397Z,15.30
2018-09-19T22:12:03.046Z,15.20
2018-09-19T22:14:34.626Z,15.20
2018-09-19T22:17:07.111Z,15.20
2018-09-19T22:19:38.212Z,15.20
2018-09-19T22:22:08.687Z,15.20
2018-09-19T22:24:39.789Z,15.20
2018-09-19T22:27:11.282Z,15.20
2018-09-19T22:29:41.897Z,15.20
2018-09-19T22:32:13.046Z,15.10
2018-09-19T22:34:44.538Z,15.10
2018-09-19T22:37:15.075Z,15.10
2018-09-19T22:39:46.158Z,15.00
2018-09-19T22:42:17.243Z,15.00
2018-09-19T22:44:47.847Z,14.90
2018-09-19T22:47:18.356Z,14.90
2018-09-19T22:49:48.915Z,14.80
2018-09-19T22:52:20.517Z,14.80
2018-09-19T22:54:51.001Z,14.90
2018-09-19T22:57:22.244Z,14.90
2018-09-19T22:59:52.854Z,14.80
2018-09-19T23:02:23.903Z,14.90
2018-09-19T23:04:54.513Z,14.90
2018-09-19T23:07:25.204Z,14.90
2018-09-19T23:09:55.793Z,14.90
2018-09-19T23:12:26.442Z,14.90
2018-09-19T23:14:56.917Z,14.90
2018-09-19T23:17:27.637Z,14.90
2018-09-19T23:19:58.055Z,14.90
2018-09-19T23:22:28.835Z,14.80
2018-09-19T23:25:00.210Z,14.80
2018-09-19T23:27:30.969Z,14.80
2018-09-19T23:30:01.814Z,14.70
2018-09-19T23:32:32.850Z,14.70
2018-09-19T23:35:03.685Z,14.70
2018-09-19T23:37:34.967Z,14.80
2018-09-19T23:40:05.497Z,14.80
2018-09-19T23:42:36.052Z,14.80
2018-09-19T23:45:07.675Z,14.80
2018-09-19T23:47:38.165Z,14.70
2018-09-19T23:50:08.565Z,14.70
2018-09-19T23:52:39.817Z,14.70
2018-09-19T23:55:11.912Z,14.70
2018-09-19T23:57:42.748Z,14.70
